< < Back
Terminal Aerodrome Forecast


Current Version              Previous Versions:   1  2  3  4  5  6  7  8  9  

Terminal Aerodrome Forecast

240
FTUS42 KFFC 311129
TAFFTY
TAF
KFTY 311129Z 3112/0112 00000KT P6SM FEW250
     FM311400 VRB03KT P6SM FEW050
     FM311800 VRB04KT P6SM SCT060
     FM010000 00000KT P6SM SCT100=

Latest METAR

935
SAUS70 KWBC 311200 RRN
MTRFTY
METAR KFTY 311153Z 00000KT 10SM CLR 21/17 A2998 RMK AO2 SLP141 T02060172
10217 20178 53015


USA.gov is the U.S. government's official web portal to all federal, state and local government web resources and services.